Airfield :
LOGIN :

Register | Disclaimer

   EN    FR    IT 

 










Legend :    VFR   Marginal VFR   IFR   Intensive IFR   Very Intensive IFR
Visi :
Ceiling :
>= 8 km
>= 3000ft
5 to 8 km
1000 to 3000 ft
1500m to 5 km
500 to 1000 ft
800 to 1500m
200 to 500 ft
< 800m
< 200 ft
Symbols :   Thunderstorms  Fog  Heavy snow  Heavy precipitations  Wind > 20 kt
SIGMETs :     Misc.  Thunderstorms  Icing  Turbulence  Mountain Waves  Volcanic Ashes






- Airport Elevation : 461 ft
- IATA code : WIE


ETOU - Wiesbaden Army

CURRENT METAR :
  • 261056Z AUTO 30006KT 9999 OVC014 02/01 A3049 RMK AO2 SLP335 T00150011 $

EXPIRED METARs :
  • 260956Z AUTO 26005KT 9999 OVC013 01/01 A3049 RMK AO2 SLP336 T00130012 $
  • 260856Z AUTO 27004KT 9999 OVC012 01/01 A3048 RMK AO2 CIG 011 RWY07 SLP333 T00120011 50006 $

TAF AMD TAF ETOU
Valid from the 26 at 05:00 until the 27 at 11:00 UTC


260554Z 2605/2711 VRB06KT 6000 BR BKN008 QNH3048INS
TEMPO 2607/2609 4000 BR BKN006
BECMG 2612/2613 28009KT 9999 NSW BKN015 OVC020 QNH3048INS
BECMG 2618/2619 30010KT 9000 BR BKN008 OVC015 QNH3046INS
BECMG 2700/2701 24008KT 8000 BR OVC010 QNH3033INS TX02/2614Z TNM01/2703Z



MET'MAP, your aeronautical weather chart ! - Copyright ORBIFLY December 2007 - Disclaimer

ORBIFLY MET'MAP TEAM :

Programming & Development : Alexandra Zaïnal
Original concept : Baudouin d'Aumeries
Technical & hardware support : Manuel Goepfert
Assistance : Marc-Olivier Méhu

Contact : metmap@orbifly.com




SOURCES & CREDITS :

   NOAA